Terminal Aerodrome Forecast
Issued by NWS

Home | Current Version | Previous Version | Graphics & Text | Print | Product List | Glossary On
Versions: 1 2 3 4 5 6 7 8 9 10 11 12 13 14 15 16 17 18 19 20
000
FTUS43 KBIS 201625 AAA
TAFMOT
TAF AMD
KMOT 201625Z 2016/2112 24014KT P6SM OVC150
     FM201800 27016G24KT P6SM BKN200
     FM202000 30024G35KT P6SM BKN040
     FM210100 30022G31KT P6SM FEW250
     FM210900 30020G28KT P6SM SCT050=

USA.gov is the U.S. government's official web portal to all federal, state and local government web resources and services.